sensor_id;sensor_type;location;lat;lon;timestamp;P1;durP1;ratioP1;P2;durP2;ratioP2
13571;SDS011;6857;53.484;10.216;2022-11-20T00:00:03;5.20;;;4.43;;
13571;SDS011;6857;53.484;10.216;2022-11-20T00:02:29;7.33;;;4.70;;
13571;SDS011;6857;53.484;10.216;2022-11-20T00:04:54;7.63;;;4.53;;
13571;SDS011;6857;53.484;10.216;2022-11-20T00:07:20;7.83;;;4.80;;
13571;SDS011;6857;53.484;10.216;2022-11-20T00:09:46;5.57;;;4.10;;
13571;SDS011;6857;53.484;10.216;2022-11-20T00:12:11;6.50;;;4.37;;
13571;SDS011;6857;53.484;10.216;2022-11-20T00:14:37;7.77;;;4.70;;
13571;SDS011;6857;53.484;10.216;2022-11-20T00:17:02;5.27;;;3.93;;
13571;SDS011;6857;53.484;10.216;2022-11-20T00:19:28;7.20;;;4.70;;
13571;SDS011;6857;53.484;10.216;2022-11-20T00:21:53;6.73;;;4.50;;
13571;SDS011;6857;53.484;10.216;2022-11-20T00:24:20;5.97;;;4.23;;
13571;SDS011;6857;53.484;10.216;2022-11-20T00:26:46;9.50;;;4.50;;
13571;SDS011;6857;53.484;10.216;2022-11-20T00:29:11;4.40;;;3.43;;
13571;SDS011;6857;53.484;10.216;2022-11-20T00:31:37;8.53;;;4.80;;
13571;SDS011;6857;53.484;10.216;2022-11-20T00:34:02;9.53;;;4.00;;
13571;SDS011;6857;53.484;10.216;2022-11-20T00:36:29;8.07;;;4.50;;
13571;SDS011;6857;53.484;10.216;2022-11-20T00:38:58;8.33;;;4.60;;
13571;SDS011;6857;53.484;10.216;2022-11-20T00:41:24;6.10;;;4.40;;
13571;SDS011;6857;53.484;10.216;2022-11-20T00:43:54;6.47;;;4.67;;
13571;SDS011;6857;53.484;10.216;2022-11-20T00:46:21;6.57;;;4.10;;
13571;SDS011;6857;53.484;10.216;2022-11-20T00:48:48;7.20;;;4.20;;
13571;SDS011;6857;53.484;10.216;2022-11-20T00:51:15;6.43;;;4.40;;
13571;SDS011;6857;53.484;10.216;2022-11-20T00:53:42;6.07;;;4.07;;
13571;SDS011;6857;53.484;10.216;2022-11-20T00:56:11;4.67;;;3.50;;
13571;SDS011;6857;53.484;10.216;2022-11-20T00:58:40;7.83;;;4.03;;
13571;SDS011;6857;53.484;10.216;2022-11-20T01:03:41;6.43;;;4.17;;
13571;SDS011;6857;53.484;10.216;2022-11-20T01:06:18;6.63;;;4.07;;
13571;SDS011;6857;53.484;10.216;2022-11-20T01:08:52;8.00;;;3.87;;
13571;SDS011;6857;53.484;10.216;2022-11-20T01:11:24;7.77;;;4.40;;
13571;SDS011;6857;53.484;10.216;2022-11-20T01:13:51;5.57;;;3.60;;
13571;SDS011;6857;53.484;10.216;2022-11-20T01:16:19;7.50;;;4.37;;
13571;SDS011;6857;53.484;10.216;2022-11-20T01:18:47;6.77;;;4.00;;
13571;SDS011;6857;53.484;10.216;2022-11-20T01:21:18;4.93;;;4.03;;
13571;SDS011;6857;53.484;10.216;2022-11-20T01:23:45;4.83;;;3.83;;
13571;SDS011;6857;53.484;10.216;2022-11-20T01:26:14;5.17;;;3.80;;
13571;SDS011;6857;53.484;10.216;2022-11-20T01:28:42;5.83;;;4.00;;
13571;SDS011;6857;53.484;10.216;2022-11-20T01:33:41;4.37;;;2.90;;
13571;SDS011;6857;53.484;10.216;2022-11-20T01:36:07;6.47;;;3.80;;
13571;SDS011;6857;53.484;10.216;2022-11-20T01:38:33;5.07;;;3.33;;
13571;SDS011;6857;53.484;10.216;2022-11-20T01:40:59;4.97;;;3.70;;
13571;SDS011;6857;53.484;10.216;2022-11-20T01:43:25;5.77;;;3.70;;
13571;SDS011;6857;53.484;10.216;2022-11-20T01:51:29;7.60;;;3.70;;
13571;SDS011;6857;53.484;10.216;2022-11-20T01:53:59;6.47;;;4.03;;
13571;SDS011;6857;53.484;10.216;2022-11-20T01:56:29;5.57;;;4.03;;
13571;SDS011;6857;53.484;10.216;2022-11-20T01:58:59;6.50;;;3.87;;
13571;SDS011;6857;53.484;10.216;2022-11-20T02:01:29;5.30;;;3.40;;
13571;SDS011;6857;53.484;10.216;2022-11-20T02:03:55;5.27;;;3.67;;
13571;SDS011;6857;53.484;10.216;2022-11-20T02:06:23;4.33;;;3.10;;
13571;SDS011;6857;53.484;10.216;2022-11-20T02:08:54;4.30;;;3.50;;
13571;SDS011;6857;53.484;10.216;2022-11-20T02:11:20;7.67;;;3.70;;
13571;SDS011;6857;53.484;10.216;2022-11-20T02:13:46;7.07;;;4.27;;
13571;SDS011;6857;53.484;10.216;2022-11-20T02:18:48;6.33;;;3.60;;
13571;SDS011;6857;53.484;10.216;2022-11-20T02:21:17;6.70;;;4.10;;
13571;SDS011;6857;53.484;10.216;2022-11-20T02:24:04;6.13;;;4.23;;
13571;SDS011;6857;53.484;10.216;2022-11-20T02:29:06;4.77;;;3.83;;
13571;SDS011;6857;53.484;10.216;2022-11-20T02:31:36;6.27;;;3.70;;
13571;SDS011;6857;53.484;10.216;2022-11-20T02:34:03;5.70;;;3.97;;
13571;SDS011;6857;53.484;10.216;2022-11-20T02:36:29;6.43;;;4.13;;
13571;SDS011;6857;53.484;10.216;2022-11-20T02:38:56;5.93;;;4.00;;
13571;SDS011;6857;53.484;10.216;2022-11-20T02:41:29;5.67;;;4.20;;
13571;SDS011;6857;53.484;10.216;2022-11-20T02:43:56;6.93;;;4.10;;
13571;SDS011;6857;53.484;10.216;2022-11-20T02:46:22;4.63;;;3.63;;
13571;SDS011;6857;53.484;10.216;2022-11-20T02:48:47;6.80;;;4.00;;
13571;SDS011;6857;53.484;10.216;2022-11-20T02:51:13;5.33;;;3.60;;
13571;SDS011;6857;53.484;10.216;2022-11-20T02:53:39;5.70;;;4.20;;
13571;SDS011;6857;53.484;10.216;2022-11-20T02:56:04;5.53;;;3.83;;
13571;SDS011;6857;53.484;10.216;2022-11-20T02:58:30;7.13;;;4.17;;
13571;SDS011;6857;53.484;10.216;2022-11-20T03:00:56;7.23;;;4.40;;
13571;SDS011;6857;53.484;10.216;2022-11-20T03:03:21;6.10;;;4.40;;
13571;SDS011;6857;53.484;10.216;2022-11-20T03:05:47;6.73;;;4.50;;
13571;SDS011;6857;53.484;10.216;2022-11-20T03:08:12;5.40;;;4.50;;
13571;SDS011;6857;53.484;10.216;2022-11-20T03:10:38;8.03;;;4.60;;
13571;SDS011;6857;53.484;10.216;2022-11-20T03:13:03;7.43;;;4.73;;
13571;SDS011;6857;53.484;10.216;2022-11-20T03:15:29;6.80;;;4.27;;
13571;SDS011;6857;53.484;10.216;2022-11-20T03:17:55;5.87;;;4.50;;
13571;SDS011;6857;53.484;10.216;2022-11-20T03:20:20;6.60;;;4.33;;
13571;SDS011;6857;53.484;10.216;2022-11-20T03:22:46;6.03;;;4.47;;
13571;SDS011;6857;53.484;10.216;2022-11-20T03:25:12;5.97;;;4.07;;
13571;SDS011;6857;53.484;10.216;2022-11-20T03:27:38;7.43;;;4.37;;
13571;SDS011;6857;53.484;10.216;2022-11-20T03:30:04;6.33;;;4.67;;
13571;SDS011;6857;53.484;10.216;2022-11-20T03:32:30;9.37;;;5.23;;
13571;SDS011;6857;53.484;10.216;2022-11-20T03:34:56;5.83;;;4.37;;
13571;SDS011;6857;53.484;10.216;2022-11-20T03:37:21;7.40;;;4.63;;
13571;SDS011;6857;53.484;10.216;2022-11-20T03:39:47;5.50;;;3.83;;
13571;SDS011;6857;53.484;10.216;2022-11-20T03:42:13;6.57;;;4.23;;
13571;SDS011;6857;53.484;10.216;2022-11-20T03:44:57;5.77;;;4.10;;
13571;SDS011;6857;53.484;10.216;2022-11-20T03:47:22;8.80;;;4.23;;
13571;SDS011;6857;53.484;10.216;2022-11-20T03:49:48;7.13;;;4.07;;
13571;SDS011;6857;53.484;10.216;2022-11-20T03:52:14;6.57;;;4.70;;
13571;SDS011;6857;53.484;10.216;2022-11-20T03:54:40;5.20;;;4.33;;
13571;SDS011;6857;53.484;10.216;2022-11-20T03:57:05;6.50;;;4.10;;
13571;SDS011;6857;53.484;10.216;2022-11-20T03:59:31;6.03;;;4.50;;
13571;SDS011;6857;53.484;10.216;2022-11-20T04:01:56;7.70;;;4.10;;
13571;SDS011;6857;53.484;10.216;2022-11-20T04:04:22;6.07;;;4.00;;
13571;SDS011;6857;53.484;10.216;2022-11-20T04:06:47;7.40;;;4.67;;
13571;SDS011;6857;53.484;10.216;2022-11-20T04:09:13;6.13;;;4.23;;
13571;SDS011;6857;53.484;10.216;2022-11-20T04:11:39;7.37;;;4.73;;
13571;SDS011;6857;53.484;10.216;2022-11-20T04:14:06;8.80;;;4.70;;
13571;SDS011;6857;53.484;10.216;2022-11-20T04:16:37;7.03;;;4.40;;
13571;SDS011;6857;53.484;10.216;2022-11-20T04:19:04;9.07;;;4.80;;
13571;SDS011;6857;53.484;10.216;2022-11-20T04:21:31;9.27;;;4.47;;
13571;SDS011;6857;53.484;10.216;2022-11-20T04:23:57;6.60;;;4.50;;
13571;SDS011;6857;53.484;10.216;2022-11-20T04:26:23;9.03;;;5.30;;
13571;SDS011;6857;53.484;10.216;2022-11-20T04:28:51;6.47;;;4.40;;
13571;SDS011;6857;53.484;10.216;2022-11-20T04:31:17;6.77;;;4.47;;
13571;SDS011;6857;53.484;10.216;2022-11-20T04:33:45;6.37;;;4.63;;
13571;SDS011;6857;53.484;10.216;2022-11-20T04:36:15;5.57;;;4.50;;
13571;SDS011;6857;53.484;10.216;2022-11-20T04:38:45;6.47;;;4.50;;
13571;SDS011;6857;53.484;10.216;2022-11-20T04:41:17;6.23;;;4.60;;
13571;SDS011;6857;53.484;10.216;2022-11-20T04:43:50;7.37;;;5.17;;
13571;SDS011;6857;53.484;10.216;2022-11-20T04:46:18;8.47;;;5.30;;
13571;SDS011;6857;53.484;10.216;2022-11-20T04:48:45;7.77;;;4.53;;
13571;SDS011;6857;53.484;10.216;2022-11-20T04:51:12;8.03;;;4.83;;
13571;SDS011;6857;53.484;10.216;2022-11-20T04:53:38;6.67;;;4.80;;
13571;SDS011;6857;53.484;10.216;2022-11-20T04:56:05;6.17;;;4.80;;
13571;SDS011;6857;53.484;10.216;2022-11-20T04:58:32;9.30;;;4.60;;
13571;SDS011;6857;53.484;10.216;2022-11-20T05:01:01;7.20;;;5.07;;
13571;SDS011;6857;53.484;10.216;2022-11-20T05:03:31;6.57;;;4.37;;
13571;SDS011;6857;53.484;10.216;2022-11-20T05:05:59;8.60;;;4.43;;
13571;SDS011;6857;53.484;10.216;2022-11-20T05:08:26;6.13;;;4.20;;
13571;SDS011;6857;53.484;10.216;2022-11-20T05:10:51;7.30;;;4.93;;
13571;SDS011;6857;53.484;10.216;2022-11-20T05:13:17;7.00;;;4.60;;
13571;SDS011;6857;53.484;10.216;2022-11-20T05:15:42;8.80;;;4.93;;
13571;SDS011;6857;53.484;10.216;2022-11-20T05:18:08;6.47;;;4.73;;
13571;SDS011;6857;53.484;10.216;2022-11-20T05:20:33;7.43;;;5.20;;
13571;SDS011;6857;53.484;10.216;2022-11-20T05:23:01;6.80;;;4.70;;
13571;SDS011;6857;53.484;10.216;2022-11-20T05:25:27;8.93;;;4.90;;
13571;SDS011;6857;53.484;10.216;2022-11-20T05:27:52;6.23;;;4.23;;
13571;SDS011;6857;53.484;10.216;2022-11-20T05:30:18;6.70;;;4.20;;
13571;SDS011;6857;53.484;10.216;2022-11-20T05:32:43;7.87;;;5.10;;
13571;SDS011;6857;53.484;10.216;2022-11-20T05:35:09;7.57;;;5.23;;
13571;SDS011;6857;53.484;10.216;2022-11-20T05:37:35;7.50;;;4.57;;
13571;SDS011;6857;53.484;10.216;2022-11-20T05:40:00;8.23;;;4.43;;
13571;SDS011;6857;53.484;10.216;2022-11-20T05:42:26;5.20;;;4.20;;
13571;SDS011;6857;53.484;10.216;2022-11-20T05:45:01;7.90;;;4.40;;
13571;SDS011;6857;53.484;10.216;2022-11-20T05:47:30;6.73;;;4.97;;
13571;SDS011;6857;53.484;10.216;2022-11-20T05:49:57;9.53;;;5.50;;
13571;SDS011;6857;53.484;10.216;2022-11-20T05:52:23;7.70;;;4.73;;
13571;SDS011;6857;53.484;10.216;2022-11-20T05:54:48;6.10;;;4.60;;
13571;SDS011;6857;53.484;10.216;2022-11-20T05:57:14;5.73;;;4.20;;
13571;SDS011;6857;53.484;10.216;2022-11-20T05:59:40;6.83;;;4.80;;
13571;SDS011;6857;53.484;10.216;2022-11-20T06:02:05;10.00;;;5.50;;
13571;SDS011;6857;53.484;10.216;2022-11-20T06:04:31;6.53;;;4.57;;
13571;SDS011;6857;53.484;10.216;2022-11-20T06:06:56;6.70;;;4.20;;
13571;SDS011;6857;53.484;10.216;2022-11-20T06:09:22;7.60;;;4.63;;
13571;SDS011;6857;53.484;10.216;2022-11-20T06:11:47;5.50;;;4.67;;
13571;SDS011;6857;53.484;10.216;2022-11-20T06:14:13;6.33;;;4.30;;
13571;SDS011;6857;53.484;10.216;2022-11-20T06:16:39;6.33;;;4.30;;
13571;SDS011;6857;53.484;10.216;2022-11-20T06:19:04;7.77;;;4.67;;
13571;SDS011;6857;53.484;10.216;2022-11-20T06:21:30;6.40;;;4.23;;
13571;SDS011;6857;53.484;10.216;2022-11-20T06:23:55;6.60;;;4.07;;
13571;SDS011;6857;53.484;10.216;2022-11-20T06:26:22;6.77;;;4.30;;
13571;SDS011;6857;53.484;10.216;2022-11-20T06:28:49;6.40;;;4.43;;
13571;SDS011;6857;53.484;10.216;2022-11-20T06:31:16;6.37;;;4.40;;
13571;SDS011;6857;53.484;10.216;2022-11-20T06:33:44;6.33;;;4.47;;
13571;SDS011;6857;53.484;10.216;2022-11-20T06:36:10;5.23;;;4.13;;
13571;SDS011;6857;53.484;10.216;2022-11-20T06:38:37;6.73;;;3.97;;
13571;SDS011;6857;53.484;10.216;2022-11-20T06:41:04;5.03;;;4.23;;
13571;SDS011;6857;53.484;10.216;2022-11-20T06:43:30;6.03;;;4.03;;
13571;SDS011;6857;53.484;10.216;2022-11-20T06:45:57;6.20;;;4.03;;
13571;SDS011;6857;53.484;10.216;2022-11-20T06:48:23;6.40;;;4.33;;
13571;SDS011;6857;53.484;10.216;2022-11-20T06:50:50;7.00;;;4.33;;
13571;SDS011;6857;53.484;10.216;2022-11-20T06:53:16;7.17;;;4.33;;
13571;SDS011;6857;53.484;10.216;2022-11-20T06:55:42;5.80;;;4.17;;
13571;SDS011;6857;53.484;10.216;2022-11-20T06:58:10;5.97;;;4.17;;
13571;SDS011;6857;53.484;10.216;2022-11-20T07:00:36;6.90;;;4.70;;
13571;SDS011;6857;53.484;10.216;2022-11-20T07:03:05;6.33;;;4.73;;
13571;SDS011;6857;53.484;10.216;2022-11-20T07:05:32;7.97;;;4.60;;
13571;SDS011;6857;53.484;10.216;2022-11-20T07:07:58;8.07;;;5.33;;
13571;SDS011;6857;53.484;10.216;2022-11-20T07:10:24;7.07;;;4.63;;
13571;SDS011;6857;53.484;10.216;2022-11-20T07:12:51;7.17;;;4.50;;
13571;SDS011;6857;53.484;10.216;2022-11-20T07:15:18;6.30;;;4.60;;
13571;SDS011;6857;53.484;10.216;2022-11-20T07:17:44;6.30;;;4.90;;
13571;SDS011;6857;53.484;10.216;2022-11-20T07:20:10;6.40;;;4.63;;
13571;SDS011;6857;53.484;10.216;2022-11-20T07:22:36;7.20;;;4.90;;
13571;SDS011;6857;53.484;10.216;2022-11-20T07:25:02;6.23;;;4.60;;
13571;SDS011;6857;53.484;10.216;2022-11-20T07:27:28;6.63;;;4.77;;
13571;SDS011;6857;53.484;10.216;2022-11-20T07:29:54;7.07;;;4.70;;
13571;SDS011;6857;53.484;10.216;2022-11-20T07:32:20;6.30;;;4.23;;
13571;SDS011;6857;53.484;10.216;2022-11-20T07:34:46;6.90;;;4.10;;
13571;SDS011;6857;53.484;10.216;2022-11-20T07:37:12;7.23;;;4.17;;
13571;SDS011;6857;53.484;10.216;2022-11-20T07:39:38;7.83;;;4.80;;
13571;SDS011;6857;53.484;10.216;2022-11-20T07:42:03;6.47;;;4.77;;
13571;SDS011;6857;53.484;10.216;2022-11-20T07:44:30;10.63;;;5.33;;
13571;SDS011;6857;53.484;10.216;2022-11-20T07:46:56;8.90;;;5.00;;
13571;SDS011;6857;53.484;10.216;2022-11-20T07:49:21;5.87;;;4.73;;
13571;SDS011;6857;53.484;10.216;2022-11-20T07:51:49;8.23;;;4.70;;
13571;SDS011;6857;53.484;10.216;2022-11-20T07:54:15;6.60;;;5.03;;
13571;SDS011;6857;53.484;10.216;2022-11-20T07:56:41;8.23;;;5.03;;
13571;SDS011;6857;53.484;10.216;2022-11-20T07:59:07;8.30;;;5.83;;
13571;SDS011;6857;53.484;10.216;2022-11-20T08:01:32;6.70;;;4.90;;
13571;SDS011;6857;53.484;10.216;2022-11-20T08:03:58;13.20;;;5.50;;
13571;SDS011;6857;53.484;10.216;2022-11-20T08:06:23;7.80;;;5.47;;
13571;SDS011;6857;53.484;10.216;2022-11-20T08:08:49;9.87;;;6.07;;
13571;SDS011;6857;53.484;10.216;2022-11-20T08:11:15;8.67;;;5.60;;
13571;SDS011;6857;53.484;10.216;2022-11-20T08:13:59;9.33;;;5.57;;
13571;SDS011;6857;53.484;10.216;2022-11-20T08:16:41;8.03;;;5.33;;
13571;SDS011;6857;53.484;10.216;2022-11-20T08:19:14;8.40;;;5.93;;
13571;SDS011;6857;53.484;10.216;2022-11-20T08:21:41;12.37;;;6.90;;
13571;SDS011;6857;53.484;10.216;2022-11-20T08:24:07;14.13;;;8.73;;
13571;SDS011;6857;53.484;10.216;2022-11-20T08:26:34;12.50;;;9.07;;
13571;SDS011;6857;53.484;10.216;2022-11-20T08:29:00;13.90;;;9.30;;
13571;SDS011;6857;53.484;10.216;2022-11-20T08:31:26;12.77;;;9.47;;
13571;SDS011;6857;53.484;10.216;2022-11-20T08:33:52;12.53;;;9.37;;
13571;SDS011;6857;53.484;10.216;2022-11-20T08:36:19;11.27;;;8.80;;
13571;SDS011;6857;53.484;10.216;2022-11-20T08:38:48;11.00;;;7.80;;
13571;SDS011;6857;53.484;10.216;2022-11-20T08:41:16;10.23;;;8.13;;
13571;SDS011;6857;53.484;10.216;2022-11-20T08:43:58;13.83;;;9.20;;
13571;SDS011;6857;53.484;10.216;2022-11-20T08:46:25;11.03;;;8.30;;
13571;SDS011;6857;53.484;10.216;2022-11-20T08:48:52;10.80;;;7.13;;
13571;SDS011;6857;53.484;10.216;2022-11-20T08:51:18;10.50;;;7.67;;
13571;SDS011;6857;53.484;10.216;2022-11-20T08:53:45;9.87;;;7.03;;
13571;SDS011;6857;53.484;10.216;2022-11-20T08:56:13;11.93;;;7.80;;
13571;SDS011;6857;53.484;10.216;2022-11-20T08:58:39;11.30;;;8.20;;
13571;SDS011;6857;53.484;10.216;2022-11-20T09:01:05;8.67;;;6.40;;
13571;SDS011;6857;53.484;10.216;2022-11-20T09:03:31;10.17;;;7.33;;
13571;SDS011;6857;53.484;10.216;2022-11-20T09:05:57;12.03;;;6.67;;
13571;SDS011;6857;53.484;10.216;2022-11-20T09:08:24;10.90;;;7.50;;
13571;SDS011;6857;53.484;10.216;2022-11-20T09:10:53;10.33;;;7.43;;
13571;SDS011;6857;53.484;10.216;2022-11-20T09:13:20;8.10;;;5.73;;
13571;SDS011;6857;53.484;10.216;2022-11-20T09:15:47;9.50;;;5.77;;
13571;SDS011;6857;53.484;10.216;2022-11-20T09:18:17;8.87;;;5.13;;
13571;SDS011;6857;53.484;10.216;2022-11-20T09:20:43;5.83;;;4.23;;
13571;SDS011;6857;53.484;10.216;2022-11-20T09:23:09;5.37;;;3.83;;
13571;SDS011;6857;53.484;10.216;2022-11-20T09:25:34;4.50;;;3.53;;
13571;SDS011;6857;53.484;10.216;2022-11-20T09:28:00;3.77;;;3.20;;
13571;SDS011;6857;53.484;10.216;2022-11-20T09:30:26;3.30;;;2.90;;
13571;SDS011;6857;53.484;10.216;2022-11-20T09:32:52;3.27;;;2.97;;
13571;SDS011;6857;53.484;10.216;2022-11-20T09:35:17;4.87;;;2.90;;
13571;SDS011;6857;53.484;10.216;2022-11-20T09:37:43;4.17;;;3.30;;
13571;SDS011;6857;53.484;10.216;2022-11-20T09:40:17;4.90;;;2.70;;
13571;SDS011;6857;53.484;10.216;2022-11-20T09:42:52;5.33;;;3.70;;
13571;SDS011;6857;53.484;10.216;2022-11-20T09:48:12;3.50;;;2.80;;
13571;SDS011;6857;53.484;10.216;2022-11-20T09:53:25;3.23;;;2.57;;
13571;SDS011;6857;53.484;10.216;2022-11-20T09:55:52;3.57;;;2.70;;
13571;SDS011;6857;53.484;10.216;2022-11-20T09:58:31;2.93;;;2.60;;
13571;SDS011;6857;53.484;10.216;2022-11-20T10:01:20;5.67;;;2.87;;
13571;SDS011;6857;53.484;10.216;2022-11-20T10:06:30;4.40;;;3.23;;
13571;SDS011;6857;53.484;10.216;2022-11-20T10:09:00;3.87;;;2.83;;
13571;SDS011;6857;53.484;10.216;2022-11-20T10:14:38;4.27;;;2.60;;
13571;SDS011;6857;53.484;10.216;2022-11-20T10:17:26;5.83;;;2.93;;
13571;SDS011;6857;53.484;10.216;2022-11-20T10:22:49;5.30;;;3.30;;
13571;SDS011;6857;53.484;10.216;2022-11-20T10:25:20;4.50;;;3.23;;
13571;SDS011;6857;53.484;10.216;2022-11-20T10:30:41;4.33;;;3.20;;
13571;SDS011;6857;53.484;10.216;2022-11-20T10:33:12;6.13;;;4.03;;
13571;SDS011;6857;53.484;10.216;2022-11-20T10:35:41;4.67;;;3.37;;
13571;SDS011;6857;53.484;10.216;2022-11-20T10:38:13;4.93;;;3.80;;
13571;SDS011;6857;53.484;10.216;2022-11-20T10:40:44;4.93;;;3.37;;
13571;SDS011;6857;53.484;10.216;2022-11-20T10:43:15;4.47;;;3.67;;
13571;SDS011;6857;53.484;10.216;2022-11-20T10:45:49;5.53;;;3.50;;
13571;SDS011;6857;53.484;10.216;2022-11-20T10:48:26;5.90;;;3.83;;
13571;SDS011;6857;53.484;10.216;2022-11-20T10:50:55;4.17;;;3.37;;
13571;SDS011;6857;53.484;10.216;2022-11-20T10:53:31;3.80;;;3.17;;
13571;SDS011;6857;53.484;10.216;2022-11-20T10:56:07;4.70;;;3.50;;
13571;SDS011;6857;53.484;10.216;2022-11-20T11:01:22;3.27;;;2.90;;
13571;SDS011;6857;53.484;10.216;2022-11-20T11:03:48;5.67;;;3.33;;
13571;SDS011;6857;53.484;10.216;2022-11-20T11:09:00;6.73;;;3.00;;
13571;SDS011;6857;53.484;10.216;2022-11-20T11:11:30;4.57;;;3.07;;
13571;SDS011;6857;53.484;10.216;2022-11-20T11:14:05;3.50;;;3.20;;
13571;SDS011;6857;53.484;10.216;2022-11-20T11:16:32;4.00;;;3.00;;
13571;SDS011;6857;53.484;10.216;2022-11-20T11:19:04;5.30;;;3.30;;
13571;SDS011;6857;53.484;10.216;2022-11-20T11:21:31;3.30;;;3.00;;
13571;SDS011;6857;53.484;10.216;2022-11-20T11:24:01;3.90;;;3.37;;
13571;SDS011;6857;53.484;10.216;2022-11-20T11:26:28;5.40;;;3.30;;
13571;SDS011;6857;53.484;10.216;2022-11-20T11:29:01;3.60;;;3.17;;
13571;SDS011;6857;53.484;10.216;2022-11-20T11:31:29;4.20;;;3.63;;
13571;SDS011;6857;53.484;10.216;2022-11-20T11:34:14;3.53;;;3.00;;
13571;SDS011;6857;53.484;10.216;2022-11-20T11:36:41;3.83;;;3.00;;
13571;SDS011;6857;53.484;10.216;2022-11-20T11:39:16;5.00;;;3.47;;
13571;SDS011;6857;53.484;10.216;2022-11-20T11:41:44;4.13;;;3.20;;
13571;SDS011;6857;53.484;10.216;2022-11-20T11:44:17;5.87;;;3.07;;
13571;SDS011;6857;53.484;10.216;2022-11-20T11:47:04;3.20;;;2.70;;
13571;SDS011;6857;53.484;10.216;2022-11-20T11:49:34;3.87;;;3.33;;
13571;SDS011;6857;53.484;10.216;2022-11-20T11:52:04;4.47;;;3.20;;
13571;SDS011;6857;53.484;10.216;2022-11-20T12:00:08;3.30;;;2.60;;
13571;SDS011;6857;53.484;10.216;2022-11-20T12:03:03;4.13;;;2.87;;
13571;SDS011;6857;53.484;10.216;2022-11-20T12:11:20;3.10;;;2.50;;
13571;SDS011;6857;53.484;10.216;2022-11-20T12:16:19;4.57;;;2.80;;
13571;SDS011;6857;53.484;10.216;2022-11-20T12:18:46;3.20;;;2.50;;
13571;SDS011;6857;53.484;10.216;2022-11-20T12:21:18;4.27;;;3.17;;
13571;SDS011;6857;53.484;10.216;2022-11-20T12:26:27;3.07;;;2.40;;
13571;SDS011;6857;53.484;10.216;2022-11-20T12:37:16;4.07;;;2.47;;
13571;SDS011;6857;53.484;10.216;2022-11-20T12:40:23;2.27;;;2.07;;
13571;SDS011;6857;53.484;10.216;2022-11-20T12:43:23;4.50;;;2.60;;
13571;SDS011;6857;53.484;10.216;2022-11-20T12:49:12;2.90;;;2.60;;
13571;SDS011;6857;53.484;10.216;2022-11-20T12:57:09;3.07;;;2.47;;
13571;SDS011;6857;53.484;10.216;2022-11-20T12:59:58;2.20;;;2.00;;
13571;SDS011;6857;53.484;10.216;2022-11-20T13:07:40;2.57;;;2.07;;
13571;SDS011;6857;53.484;10.216;2022-11-20T13:10:10;2.20;;;2.00;;
13571;SDS011;6857;53.484;10.216;2022-11-20T13:12:44;2.30;;;1.80;;
13571;SDS011;6857;53.484;10.216;2022-11-20T13:15:36;2.80;;;2.10;;
13571;SDS011;6857;53.484;10.216;2022-11-20T13:18:20;2.60;;;2.03;;
13571;SDS011;6857;53.484;10.216;2022-11-20T13:20:46;2.50;;;2.00;;
13571;SDS011;6857;53.484;10.216;2022-11-20T13:23:22;2.23;;;1.97;;
13571;SDS011;6857;53.484;10.216;2022-11-20T13:25:49;2.67;;;1.70;;
13571;SDS011;6857;53.484;10.216;2022-11-20T13:30:50;2.33;;;1.90;;
13571;SDS011;6857;53.484;10.216;2022-11-20T13:33:25;5.13;;;2.03;;
13571;SDS011;6857;53.484;10.216;2022-11-20T13:36:35;2.43;;;1.87;;
13571;SDS011;6857;53.484;10.216;2022-11-20T13:38:52;2.50;;;2.30;;
13571;SDS011;6857;53.484;10.216;2022-11-20T13:41:30;2.20;;;1.97;;
13571;SDS011;6857;53.484;10.216;2022-11-20T13:44:21;2.10;;;1.90;;
13571;SDS011;6857;53.484;10.216;2022-11-20T13:47:00;3.30;;;1.77;;
13571;SDS011;6857;53.484;10.216;2022-11-20T13:49:27;3.90;;;1.80;;
13571;SDS011;6857;53.484;10.216;2022-11-20T13:52:05;2.60;;;1.93;;
13571;SDS011;6857;53.484;10.216;2022-11-20T13:55:21;3.10;;;2.00;;
13571;SDS011;6857;53.484;10.216;2022-11-20T14:00:24;2.10;;;1.90;;
13571;SDS011;6857;53.484;10.216;2022-11-20T14:03:08;2.53;;;2.33;;
13571;SDS011;6857;53.484;10.216;2022-11-20T14:05:45;2.63;;;2.43;;
13571;SDS011;6857;53.484;10.216;2022-11-20T14:08:23;2.30;;;2.00;;
13571;SDS011;6857;53.484;10.216;2022-11-20T14:11:23;3.27;;;2.27;;
13571;SDS011;6857;53.484;10.216;2022-11-20T14:13:56;2.87;;;2.17;;
13571;SDS011;6857;53.484;10.216;2022-11-20T14:16:23;2.50;;;2.07;;
13571;SDS011;6857;53.484;10.216;2022-11-20T14:18:50;3.10;;;2.50;;
13571;SDS011;6857;53.484;10.216;2022-11-20T14:21:23;2.70;;;2.43;;
13571;SDS011;6857;53.484;10.216;2022-11-20T14:23:54;2.43;;;2.20;;
13571;SDS011;6857;53.484;10.216;2022-11-20T14:26:32;4.40;;;2.13;;
13571;SDS011;6857;53.484;10.216;2022-11-20T14:28:58;3.40;;;2.60;;
13571;SDS011;6857;53.484;10.216;2022-11-20T14:31:25;2.70;;;2.30;;
13571;SDS011;6857;53.484;10.216;2022-11-20T14:33:52;4.03;;;2.47;;
13571;SDS011;6857;53.484;10.216;2022-11-20T14:36:20;4.70;;;2.67;;
13571;SDS011;6857;53.484;10.216;2022-11-20T14:38:48;3.10;;;2.43;;
13571;SDS011;6857;53.484;10.216;2022-11-20T14:41:19;6.27;;;2.70;;
13571;SDS011;6857;53.484;10.216;2022-11-20T14:43:51;3.20;;;2.67;;
13571;SDS011;6857;53.484;10.216;2022-11-20T14:46:22;2.67;;;2.40;;
13571;SDS011;6857;53.484;10.216;2022-11-20T14:48:52;3.23;;;2.63;;
13571;SDS011;6857;53.484;10.216;2022-11-20T14:51:31;3.00;;;2.70;;
13571;SDS011;6857;53.484;10.216;2022-11-20T14:54:19;5.57;;;2.80;;
13571;SDS011;6857;53.484;10.216;2022-11-20T14:56:57;7.20;;;2.87;;
13571;SDS011;6857;53.484;10.216;2022-11-20T14:59:25;3.53;;;2.70;;
13571;SDS011;6857;53.484;10.216;2022-11-20T15:02:29;3.57;;;2.83;;
13571;SDS011;6857;53.484;10.216;2022-11-20T15:04:45;6.50;;;3.37;;
13571;SDS011;6857;53.484;10.216;2022-11-20T15:07:22;3.90;;;2.93;;
13571;SDS011;6857;53.484;10.216;2022-11-20T15:10:03;3.60;;;2.60;;
13571;SDS011;6857;53.484;10.216;2022-11-20T15:12:34;3.87;;;3.17;;
13571;SDS011;6857;53.484;10.216;2022-11-20T15:15:02;4.10;;;3.10;;
13571;SDS011;6857;53.484;10.216;2022-11-20T15:17:30;3.53;;;2.70;;
13571;SDS011;6857;53.484;10.216;2022-11-20T15:19:56;4.27;;;2.97;;
13571;SDS011;6857;53.484;10.216;2022-11-20T15:22:23;5.83;;;3.40;;
13571;SDS011;6857;53.484;10.216;2022-11-20T15:24:49;3.87;;;3.10;;
13571;SDS011;6857;53.484;10.216;2022-11-20T15:27:14;6.23;;;3.83;;
13571;SDS011;6857;53.484;10.216;2022-11-20T15:29:40;4.13;;;2.77;;
13571;SDS011;6857;53.484;10.216;2022-11-20T15:32:07;4.30;;;3.37;;
13571;SDS011;6857;53.484;10.216;2022-11-20T15:34:33;5.40;;;3.97;;
13571;SDS011;6857;53.484;10.216;2022-11-20T15:36:59;5.63;;;3.10;;
13571;SDS011;6857;53.484;10.216;2022-11-20T15:39:25;3.67;;;3.23;;
13571;SDS011;6857;53.484;10.216;2022-11-20T15:41:50;3.70;;;2.93;;
13571;SDS011;6857;53.484;10.216;2022-11-20T15:44:16;4.37;;;3.20;;
13571;SDS011;6857;53.484;10.216;2022-11-20T15:46:41;5.20;;;3.30;;
13571;SDS011;6857;53.484;10.216;2022-11-20T15:49:10;3.67;;;2.83;;
13571;SDS011;6857;53.484;10.216;2022-11-20T15:51:39;4.07;;;3.20;;
13571;SDS011;6857;53.484;10.216;2022-11-20T15:54:09;4.40;;;3.30;;
13571;SDS011;6857;53.484;10.216;2022-11-20T15:56:36;4.87;;;3.17;;
13571;SDS011;6857;53.484;10.216;2022-11-20T15:59:02;3.67;;;3.03;;
13571;SDS011;6857;53.484;10.216;2022-11-20T16:01:28;7.27;;;5.17;;
13571;SDS011;6857;53.484;10.216;2022-11-20T16:03:53;9.33;;;5.23;;
13571;SDS011;6857;53.484;10.216;2022-11-20T16:06:19;5.53;;;3.43;;
13571;SDS011;6857;53.484;10.216;2022-11-20T16:08:44;5.53;;;3.43;;
13571;SDS011;6857;53.484;10.216;2022-11-20T16:11:11;4.17;;;3.43;;
13571;SDS011;6857;53.484;10.216;2022-11-20T16:13:38;6.00;;;3.53;;
13571;SDS011;6857;53.484;10.216;2022-11-20T16:16:30;6.20;;;4.23;;
13571;SDS011;6857;53.484;10.216;2022-11-20T16:18:58;4.70;;;3.67;;
13571;SDS011;6857;53.484;10.216;2022-11-20T16:21:24;4.53;;;3.23;;